createdAt,value
2019-03-26T00:00:54.038Z,0
2019-03-26T00:01:54.787Z,0
2019-03-26T00:02:55.544Z,0
2019-03-26T00:04:08.381Z,0
2019-03-26T00:05:06.594Z,0
2019-03-26T00:06:07.628Z,0
2019-03-26T00:07:07.099Z,0
2019-03-26T00:08:07.569Z,0
2019-03-26T00:09:07.768Z,0
2019-03-26T00:10:08.242Z,0
2019-03-26T00:11:09.006Z,0
2019-03-26T00:12:09.591Z,0
2019-03-26T00:13:10.068Z,0
2019-03-26T00:14:11.102Z,0
2019-03-26T00:15:11.313Z,0
2019-03-26T00:16:12.641Z,0
2019-03-26T00:17:12.397Z,0
2019-03-26T00:18:12.592Z,0
2019-03-26T00:19:13.618Z,0
2019-03-26T00:20:14.374Z,0
2019-03-26T00:21:15.123Z,0
2019-03-26T00:22:15.318Z,0
2019-03-26T00:23:16.074Z,0
2019-03-26T00:24:16.825Z,0
2019-03-26T00:25:17.687Z,0
2019-03-26T00:26:18.441Z,0
2019-03-26T00:27:18.644Z,0
2019-03-26T00:28:19.185Z,0
2019-03-26T00:29:19.940Z,0
2019-03-26T00:30:20.413Z,0
2019-03-26T00:31:20.625Z,0
2019-03-26T00:32:24.326Z,0
2019-03-26T00:33:21.828Z,0
2019-03-26T00:33:43.710Z,0
2019-03-26T00:34:43.521Z,0
2019-03-26T00:35:43.995Z,0
2019-03-26T00:36:44.748Z,0
2019-03-26T00:37:45.502Z,0
2019-03-26T00:38:47.536Z,0
2019-03-26T00:39:47.375Z,0
2019-03-26T00:40:48.704Z,0
2019-03-26T00:41:49.474Z,0
2019-03-26T00:42:50.782Z,0
2019-03-26T00:43:50.985Z,0
2019-03-26T00:44:51.929Z,0
2019-03-26T00:45:53.234Z,0
2019-03-26T00:46:53.722Z,0
2019-03-26T00:47:54.203Z,0
2019-03-26T00:48:54.984Z,0
2019-03-26T00:49:55.198Z,0
2019-03-26T00:50:55.394Z,0
2019-03-26T00:51:56.146Z,0
2019-03-26T00:52:56.343Z,0
2019-03-26T00:53:57.374Z,0
2019-03-26T00:54:57.857Z,0
2019-03-26T00:55:58.087Z,0
2019-03-26T00:56:58.842Z,0
2019-03-26T00:58:02.907Z,0
2019-03-26T00:59:00.382Z,0
2019-03-26T01:00:01.624Z,0
2019-03-26T01:01:01.099Z,0
2019-03-26T01:02:02.141Z,0
2019-03-26T01:03:02.613Z,0
2019-03-26T01:04:03.366Z,0
2019-03-26T01:05:04.309Z,0
2019-03-26T01:06:05.346Z,0
2019-03-26T01:07:05.818Z,0
2019-03-26T01:08:06.848Z,0
2019-03-26T01:09:06.599Z,0
2019-03-26T01:10:07.630Z,0
2019-03-26T01:11:07.826Z,0
2019-03-26T01:12:08.300Z,0
2019-03-26T01:13:08.773Z,0
2019-03-26T01:14:09.526Z,0
2019-03-26T01:15:09.961Z,0
2019-03-26T01:16:11.376Z,0
2019-03-26T01:17:11.579Z,0
2019-03-26T01:18:12.614Z,0
2019-03-26T01:19:12.806Z,0
2019-03-26T01:20:13.650Z,0
2019-03-26T01:21:14.681Z,0
2019-03-26T01:22:15.435Z,0
2019-03-26T01:23:16.189Z,0
2019-03-26T01:24:16.957Z,0
2019-03-26T01:25:17.624Z,0
2019-03-26T01:26:18.378Z,0
2019-03-26T01:27:18.573Z,0
2019-03-26T01:28:19.604Z,0
2019-03-26T01:29:20.092Z,0
2019-03-26T01:30:20.846Z,0
2019-03-26T01:31:21.600Z,0
2019-03-26T01:32:22.355Z,0
2019-03-26T01:33:22.555Z,0
2019-03-26T01:34:23.306Z,0
2019-03-26T01:35:23.980Z,0
2019-03-26T01:36:24.731Z,0
2019-03-26T01:37:25.207Z,0
2019-03-26T01:38:26.523Z,0
2019-03-26T01:39:27.555Z,0
2019-03-26T01:40:27.861Z,0
2019-03-26T01:41:28.613Z,0
2019-03-26T01:42:29.923Z,0
2019-03-26T01:43:30.681Z,0
2019-03-26T01:44:31.167Z,0
2019-03-26T01:45:32.118Z,0
2019-03-26T01:46:32.869Z,0
2019-03-26T01:47:33.620Z,0
2019-03-26T01:48:33.894Z,0
2019-03-26T01:49:34.437Z,0
2019-03-26T01:50:35.468Z,0
2019-03-26T01:51:36.219Z,0
2019-03-26T01:52:36.695Z,0
2019-03-26T01:53:37.167Z,0
2019-03-26T01:54:37.647Z,0
2019-03-26T01:55:38.565Z,0
2019-03-26T01:56:39.933Z,0
2019-03-26T01:57:40.404Z,0
2019-03-26T01:58:40.880Z,0
2019-03-26T01:59:41.357Z,0
2019-03-26T02:00:42.110Z,0
2019-03-26T02:01:42.595Z,0
2019-03-26T02:02:43.344Z,0
2019-03-26T02:03:43.827Z,0
2019-03-26T02:04:44.383Z,0
2019-03-26T02:05:45.044Z,0
2019-03-26T02:06:45.867Z,0
2019-03-26T02:07:46.350Z,0
2019-03-26T02:08:46.875Z,0
2019-03-26T02:09:47.933Z,0
2019-03-26T02:10:48.685Z,0
2019-03-26T02:11:48.882Z,0
2019-03-26T02:12:51.199Z,0
2019-03-26T02:13:52.225Z,0
2019-03-26T02:14:52.488Z,0
2019-03-26T02:15:52.962Z,0
2019-03-26T02:16:53.435Z,0
2019-03-26T02:17:54.468Z,0
2019-03-26T02:18:54.943Z,0
2019-03-26T02:19:55.984Z,0
2019-03-26T02:20:55.736Z,0
2019-03-26T02:21:56.214Z,0
2019-03-26T02:22:57.529Z,0
2019-03-26T02:23:57.843Z,0
2019-03-26T02:24:58.322Z,0
2019-03-26T02:25:59.165Z,0
2019-03-26T02:26:59.643Z,0
2019-03-26T02:28:00.390Z,0
2019-03-26T02:29:00.659Z,0
2019-03-26T02:30:02.633Z,0
2019-03-26T02:31:02.834Z,0
2019-03-26T02:32:03.024Z,0
2019-03-26T02:33:04.356Z,0
2019-03-26T02:34:05.160Z,0
2019-03-26T02:35:21.707Z,0
2019-03-26T02:35:27.792Z,0
2019-03-26T02:36:28.758Z,0
2019-03-26T02:37:29.109Z,0
2019-03-26T02:38:29.434Z,0
2019-03-26T02:39:30.302Z,0
2019-03-26T02:40:30.394Z,0
2019-03-26T02:41:31.155Z,0
2019-03-26T02:42:32.221Z,0
2019-03-26T02:43:33.346Z,0
2019-03-26T02:44:34.679Z,0
2019-03-26T02:45:36.026Z,0
2019-03-26T02:46:37.216Z,0
2019-03-26T02:47:38.694Z,0
2019-03-26T02:48:39.577Z,0
2019-03-26T02:49:39.351Z,0
2019-03-26T02:50:39.954Z,0
2019-03-26T02:51:41.555Z,0
2019-03-26T02:52:42.425Z,0
2019-03-26T02:53:42.737Z,0
2019-03-26T02:54:43.788Z,0
2019-03-26T02:55:44.114Z,0
2019-03-26T02:56:45.850Z,0
2019-03-26T02:57:45.898Z,0
2019-03-26T02:58:47.218Z,0
2019-03-26T02:59:47.399Z,0
2019-03-26T03:00:48.455Z,0
2019-03-26T03:01:49.660Z,0
2019-03-26T03:02:49.733Z,0
2019-03-26T03:03:50.354Z,0
2019-03-26T03:04:51.969Z,0
2019-03-26T03:05:51.742Z,0
2019-03-26T03:06:51.980Z,0
2019-03-26T03:07:53.047Z,0
2019-03-26T03:08:54.486Z,0
2019-03-26T03:09:54.251Z,0
2019-03-26T03:10:55.847Z,0
2019-03-26T03:11:56.480Z,0
2019-03-26T03:12:56.519Z,0
2019-03-26T03:13:58.479Z,0
2019-03-26T03:14:57.988Z,0
2019-03-26T03:15:59.037Z,0
2019-03-26T03:17:00.466Z,0
2019-03-26T03:17:59.911Z,0
2019-03-26T03:18:59.970Z,0
2019-03-26T03:20:02.015Z,0
2019-03-26T03:21:02.328Z,0
2019-03-26T03:22:04.242Z,0
2019-03-26T03:23:05.108Z,0
2019-03-26T03:24:05.188Z,0
2019-03-26T03:25:05.516Z,0
2019-03-26T03:26:06.127Z,0
2019-03-26T03:27:07.039Z,0
2019-03-26T03:28:07.467Z,0
2019-03-26T03:29:08.774Z,0
2019-03-26T03:30:10.506Z,0
2019-03-26T03:31:11.018Z,0
2019-03-26T03:32:10.364Z,0
2019-03-26T03:33:11.552Z,0
2019-03-26T03:34:12.467Z,0
2019-03-26T03:35:13.505Z,0
2019-03-26T03:36:13.930Z,0
2019-03-26T03:37:15.289Z,0
2019-03-26T03:38:16.270Z,0
2019-03-26T03:39:16.892Z,0
2019-03-26T03:40:17.652Z,0
2019-03-26T03:41:18.967Z,0
2019-03-26T03:42:19.572Z,0
2019-03-26T03:43:19.935Z,0
2019-03-26T03:44:21.266Z,0
2019-03-26T03:45:21.319Z,0
2019-03-26T03:46:21.923Z,0
2019-03-26T03:47:22.177Z,0
2019-03-26T03:48:23.208Z,0
2019-03-26T03:49:24.532Z,0
2019-03-26T03:50:24.741Z,0
2019-03-26T03:51:26.054Z,0
2019-03-26T03:52:26.375Z,0
2019-03-26T03:53:27.699Z,0
2019-03-26T03:54:28.052Z,0
2019-03-26T03:55:28.088Z,0
2019-03-26T03:56:29.121Z,0
2019-03-26T03:57:30.358Z,0
2019-03-26T03:58:31.537Z,0
2019-03-26T03:59:32.130Z,0
2019-03-26T04:00:33.019Z,0
2019-03-26T04:01:33.606Z,0
2019-03-26T04:02:33.644Z,0
2019-03-26T04:03:34.260Z,0
2019-03-26T04:04:34.024Z,0
2019-03-26T04:05:34.812Z,0
2019-03-26T04:06:35.585Z,0
2019-03-26T04:07:36.902Z,0
2019-03-26T04:08:36.937Z,0
2019-03-26T04:09:38.800Z,0
2019-03-26T04:10:38.869Z,0
2019-03-26T04:11:40.309Z,0
2019-03-26T04:12:41.186Z,0
2019-03-26T04:13:40.990Z,0
2019-03-26T04:14:41.524Z,0
2019-03-26T04:15:42.297Z,0
2019-03-26T04:16:44.176Z,0
2019-03-26T04:17:44.283Z,0
2019-03-26T04:18:45.046Z,0
2019-03-26T04:19:46.083Z,0
2019-03-26T04:20:47.812Z,0
2019-03-26T04:21:48.688Z,0
2019-03-26T04:22:48.510Z,0
2019-03-26T04:23:49.572Z,0
2019-03-26T04:24:51.166Z,0
2019-03-26T04:25:52.043Z,0
2019-03-26T04:26:52.104Z,0
2019-03-26T04:27:53.025Z,0
2019-03-26T04:28:54.958Z,0
2019-03-26T04:29:55.366Z,0
2019-03-26T04:30:55.968Z,0
2019-03-26T04:31:57.290Z,0
2019-03-26T04:32:57.898Z,0
2019-03-26T04:33:57.654Z,0
2019-03-26T04:34:58.750Z,0
2019-03-26T04:35:58.799Z,0
2019-03-26T04:36:59.865Z,0
2019-03-26T04:38:01.778Z,0
2019-03-26T04:39:03.208Z,0
2019-03-26T04:40:03.921Z,0
2019-03-26T04:41:04.799Z,0
2019-03-26T04:42:04.592Z,0
2019-03-26T04:43:06.504Z,0
2019-03-26T04:44:06.011Z,0
2019-03-26T04:45:06.566Z,0
2019-03-26T04:46:07.589Z,0
2019-03-26T04:47:08.338Z,0
2019-03-26T04:48:09.401Z,0
2019-03-26T04:49:09.889Z,0
2019-03-26T04:50:11.469Z,0
2019-03-26T04:51:12.212Z,0
2019-03-26T04:52:12.965Z,0
2019-03-26T04:53:13.439Z,0
2019-03-26T04:54:13.658Z,0
2019-03-26T04:55:14.131Z,0
2019-03-26T04:56:15.229Z,0
2019-03-26T04:57:15.975Z,0
2019-03-26T04:58:16.676Z,0
2019-03-26T04:59:17.704Z,0
2019-03-26T05:00:18.512Z,0
2019-03-26T05:01:19.265Z,0
2019-03-26T05:02:19.484Z,0
2019-03-26T05:03:20.243Z,0
2019-03-26T05:04:21.007Z,0
2019-03-26T05:05:22.313Z,0
2019-03-26T05:06:37.106Z,0
2019-03-26T05:06:43.825Z,0
2019-03-26T05:07:43.773Z,0
2019-03-26T05:08:44.525Z,0
2019-03-26T05:09:45.660Z,0
2019-03-26T05:10:49.626Z,0
2019-03-26T05:11:47.419Z,0
2019-03-26T05:12:47.615Z,0
2019-03-26T05:13:48.090Z,0
2019-03-26T05:14:49.151Z,0
2019-03-26T05:15:49.651Z,0
2019-03-26T05:16:50.487Z,0
2019-03-26T05:17:51.249Z,0
2019-03-26T05:18:52.001Z,0
2019-03-26T05:19:52.812Z,0
2019-03-26T05:20:53.341Z,0
2019-03-26T05:21:54.091Z,0
2019-03-26T05:22:54.571Z,5.63
2019-03-26T05:23:55.602Z,5.63
2019-03-26T05:24:56.637Z,5.63
2019-03-26T05:25:57.666Z,5.63
2019-03-26T05:26:58.421Z,5.63
2019-03-26T05:27:58.919Z,5.63
2019-03-26T05:28:59.949Z,11.25
2019-03-26T05:30:00.503Z,11.25
2019-03-26T05:31:01.603Z,11.25
2019-03-26T05:32:02.913Z,11.25
2019-03-26T05:33:02.967Z,16.88
2019-03-26T05:34:03.165Z,16.88
2019-03-26T05:35:04.221Z,22.5
2019-03-26T05:36:05.275Z,22.5
2019-03-26T05:37:06.581Z,22.5
2019-03-26T05:38:06.889Z,22.5
2019-03-26T05:39:07.367Z,22.5
2019-03-26T05:40:07.842Z,22.5
2019-03-26T05:41:12.300Z,28.13
2019-03-26T05:42:09.495Z,28.13
2019-03-26T05:43:10.260Z,33.75
2019-03-26T05:44:10.741Z,33.75
2019-03-26T05:45:11.511Z,33.75
2019-03-26T05:46:11.986Z,33.75
2019-03-26T05:47:12.228Z,33.75
2019-03-26T05:48:13.187Z,33.75
2019-03-26T05:49:13.951Z,33.75
2019-03-26T05:50:14.426Z,33.75
2019-03-26T05:51:15.186Z,39.38
2019-03-26T05:52:16.500Z,39.38
2019-03-26T05:53:17.367Z,45
2019-03-26T05:54:17.130Z,45
2019-03-26T05:55:18.168Z,39.38
2019-03-26T05:56:18.674Z,39.38
2019-03-26T05:57:19.426Z,33.75
2019-03-26T05:58:20.505Z,33.75
2019-03-26T05:59:20.974Z,33.75
2019-03-26T06:00:21.730Z,33.75
2019-03-26T06:01:21.965Z,33.75
2019-03-26T06:02:22.443Z,39.38
2019-03-26T06:03:22.643Z,39.38
2019-03-26T06:04:23.397Z,39.38
2019-03-26T06:05:23.879Z,39.38
2019-03-26T06:06:24.910Z,45
2019-03-26T06:07:25.666Z,45
2019-03-26T06:08:25.587Z,50.63
2019-03-26T06:09:25.792Z,50.63
2019-03-26T06:10:26.276Z,56.25
2019-03-26T06:11:27.041Z,56.25
2019-03-26T06:12:28.401Z,67.5
2019-03-26T06:13:28.600Z,78.75
2019-03-26T06:14:28.803Z,78.75
2019-03-26T06:15:29.283Z,84.38
2019-03-26T06:16:41.020Z,84.38
2019-03-26T06:17:41.344Z,78.75
2019-03-26T06:18:40.823Z,73.13
2019-03-26T06:19:41.577Z,73.13
2019-03-26T06:20:42.889Z,73.13
2019-03-26T06:21:43.369Z,73.13
2019-03-26T06:22:44.123Z,67.5
2019-03-26T06:23:45.179Z,67.5
2019-03-26T06:24:45.218Z,67.5
2019-03-26T06:25:46.847Z,73.13
2019-03-26T06:26:47.536Z,73.13
2019-03-26T06:27:47.729Z,73.13
2019-03-26T06:28:49.315Z,73.13
2019-03-26T06:29:48.840Z,73.13
2019-03-26T06:30:49.593Z,67.5
2019-03-26T06:31:50.909Z,73.13
2019-03-26T06:32:51.665Z,73.13
2019-03-26T06:33:52.139Z,73.13
2019-03-26T06:34:52.981Z,73.13
2019-03-26T06:35:53.737Z,73.13
2019-03-26T06:36:53.936Z,73.13
2019-03-26T06:37:55.449Z,67.5
2019-03-26T06:38:54.644Z,67.5
2019-03-26T06:39:58.250Z,67.5
2019-03-26T06:40:56.093Z,61.88
2019-03-26T06:41:56.627Z,61.88
2019-03-26T06:42:57.384Z,61.88
2019-03-26T06:43:58.413Z,61.88
2019-03-26T06:44:59.818Z,61.88
2019-03-26T06:46:00.295Z,61.88
2019-03-26T06:47:00.493Z,61.88
2019-03-26T06:48:05.298Z,61.88
2019-03-26T06:49:01.790Z,61.88
2019-03-26T06:50:02.821Z,61.88
2019-03-26T06:51:03.474Z,61.88
2019-03-26T06:52:05.074Z,61.88
2019-03-26T06:53:05.400Z,61.88
2019-03-26T06:54:05.440Z,56.25
2019-03-26T06:55:05.637Z,56.25
2019-03-26T06:56:06.413Z,56.25
2019-03-26T06:57:07.164Z,56.25
2019-03-26T06:58:08.097Z,56.25
2019-03-26T06:59:08.852Z,56.25
2019-03-26T07:00:09.943Z,61.88
2019-03-26T07:01:10.417Z,61.88
2019-03-26T07:02:11.450Z,67.5
2019-03-26T07:03:12.209Z,73.13
2019-03-26T07:04:12.689Z,73.13
2019-03-26T07:05:13.728Z,78.75
2019-03-26T07:06:14.486Z,84.38
2019-03-26T07:07:15.271Z,90
2019-03-26T07:08:15.237Z,90
2019-03-26T07:09:16.272Z,90
2019-03-26T07:10:17.598Z,90
2019-03-26T07:11:18.633Z,95.63
2019-03-26T07:12:19.397Z,95.63
2019-03-26T07:13:20.152Z,101.25
2019-03-26T07:14:20.653Z,101.25
2019-03-26T07:15:21.408Z,106.88
2019-03-26T07:16:21.626Z,112.5
2019-03-26T07:17:22.465Z,118.13
2019-03-26T07:18:22.826Z,123.75
2019-03-26T07:19:23.853Z,129.38
2019-03-26T07:20:24.610Z,135
2019-03-26T07:21:25.676Z,140.63
2019-03-26T07:22:26.153Z,151.88
2019-03-26T07:23:26.914Z,163.13
2019-03-26T07:24:28.509Z,174.38
2019-03-26T07:25:28.631Z,180
2019-03-26T07:26:29.673Z,191.25
2019-03-26T07:27:29.715Z,196.88
2019-03-26T07:28:29.921Z,208.13
2019-03-26T07:29:30.130Z,219.38
2019-03-26T07:30:30.889Z,225
2019-03-26T07:31:31.092Z,225
2019-03-26T07:32:31.568Z,225
2019-03-26T07:33:32.643Z,225
2019-03-26T07:34:32.401Z,219.38
2019-03-26T07:35:33.156Z,213.75
2019-03-26T07:36:33.639Z,213.75
2019-03-26T07:37:48.064Z,208.13
2019-03-26T07:38:45.923Z,202.5
2019-03-26T07:39:46.235Z,202.5
2019-03-26T07:40:46.464Z,196.88
2019-03-26T07:41:47.846Z,191.25
2019-03-26T07:42:47.621Z,185.63
2019-03-26T07:43:48.388Z,180
2019-03-26T07:44:49.147Z,191.25
2019-03-26T07:45:49.633Z,208.13
2019-03-26T07:46:50.398Z,258.75
2019-03-26T07:47:50.599Z,191.25
2019-03-26T07:48:51.796Z,185.63
2019-03-26T07:49:52.554Z,174.38
2019-03-26T07:50:53.310Z,168.75
2019-03-26T07:51:53.789Z,168.75
2019-03-26T07:52:54.550Z,163.13
2019-03-26T07:53:54.748Z,168.75
2019-03-26T07:54:55.512Z,174.38
2019-03-26T07:55:56.541Z,168.75
2019-03-26T07:56:57.304Z,168.75
2019-03-26T07:57:59.454Z,180
2019-03-26T07:58:59.733Z,191.25
2019-03-26T08:00:00.402Z,202.5
2019-03-26T08:01:01.195Z,219.38
2019-03-26T08:02:01.952Z,236.25
2019-03-26T08:03:03.021Z,253.13
2019-03-26T08:04:04.182Z,264.38
2019-03-26T08:05:05.224Z,281.25
2019-03-26T08:06:05.984Z,303.75
2019-03-26T08:07:07.021Z,326.25
2019-03-26T08:08:07.835Z,354.38
2019-03-26T08:09:08.907Z,382.5
2019-03-26T08:10:09.258Z,405
2019-03-26T08:11:09.740Z,427.5
2019-03-26T08:12:11.072Z,416.25
2019-03-26T08:13:12.035Z,410.63
2019-03-26T08:14:12.276Z,405
2019-03-26T08:15:12.524Z,388.13
2019-03-26T08:16:13.432Z,360
2019-03-26T08:17:14.584Z,343.13
2019-03-26T08:18:14.919Z,303.75
2019-03-26T08:19:15.391Z,298.13
2019-03-26T08:20:15.435Z,286.88
2019-03-26T08:21:15.467Z,286.88
2019-03-26T08:22:15.945Z,286.88
2019-03-26T08:23:16.699Z,292.5
2019-03-26T08:24:17.730Z,309.38
2019-03-26T08:25:18.209Z,326.25
2019-03-26T08:26:18.416Z,348.75
2019-03-26T08:27:19.178Z,900
2019-03-26T08:28:19.658Z,354.38
2019-03-26T08:29:21.769Z,320.63
2019-03-26T08:30:22.469Z,326.25
2019-03-26T08:31:22.679Z,326.25
2019-03-26T08:32:24.260Z,326.25
2019-03-26T08:33:26.348Z,315
2019-03-26T08:34:27.235Z,315
2019-03-26T08:35:26.723Z,315
2019-03-26T08:36:27.487Z,326.25
2019-03-26T08:37:27.995Z,326.25
2019-03-26T08:38:28.745Z,326.25
2019-03-26T08:39:28.982Z,309.38
2019-03-26T08:40:29.464Z,303.75
2019-03-26T08:41:30.702Z,303.75
2019-03-26T08:42:31.882Z,309.38
2019-03-26T08:43:32.450Z,326.25
2019-03-26T08:44:33.795Z,343.13
2019-03-26T08:45:34.275Z,348.75
2019-03-26T08:46:34.992Z,365.63
2019-03-26T08:47:36.223Z,376.88
2019-03-26T08:48:36.041Z,393.75
2019-03-26T08:49:36.697Z,388.13
2019-03-26T08:50:37.846Z,382.5
2019-03-26T08:51:38.181Z,371.25
2019-03-26T08:52:39.770Z,376.88
2019-03-26T08:53:39.270Z,405
2019-03-26T08:54:40.031Z,472.5
2019-03-26T08:55:40.632Z,382.5
2019-03-26T08:56:41.206Z,376.88
2019-03-26T08:57:42.094Z,371.25
2019-03-26T08:58:43.199Z,371.25
2019-03-26T08:59:43.919Z,382.5
2019-03-26T09:00:44.711Z,399.38
2019-03-26T09:01:46.038Z,416.25
2019-03-26T09:02:46.863Z,495
2019-03-26T09:03:47.900Z,472.5
2019-03-26T09:04:48.664Z,450
2019-03-26T09:05:49.146Z,455.63
2019-03-26T09:06:49.350Z,461.25
2019-03-26T09:07:50.169Z,466.88
2019-03-26T09:08:51.575Z,444.38
2019-03-26T09:09:51.798Z,433.13
2019-03-26T09:10:54.201Z,427.5
2019-03-26T09:11:54.681Z,427.5
2019-03-26T09:12:56.074Z,416.25
2019-03-26T09:13:56.837Z,416.25
2019-03-26T09:14:57.880Z,421.88
2019-03-26T09:15:58.084Z,444.38
2019-03-26T09:16:58.561Z,489.38
2019-03-26T09:17:58.767Z,663.75
2019-03-26T09:18:59.359Z,950.63
2019-03-26T09:19:59.856Z,877.5
2019-03-26T09:21:00.907Z,838.13
2019-03-26T09:22:03.062Z,725.63
2019-03-26T09:23:02.578Z,635.63
2019-03-26T09:24:04.462Z,1760.63
2019-03-26T09:25:04.230Z,973.13
2019-03-26T09:26:04.710Z,770.63
2019-03-26T09:27:05.470Z,686.25
2019-03-26T09:28:06.521Z,849.38
2019-03-26T09:29:07.002Z,967.5
2019-03-26T09:30:08.801Z,765
2019-03-26T09:31:09.292Z,776.25
2019-03-26T09:32:10.062Z,680.63
2019-03-26T09:33:10.618Z,630
2019-03-26T09:34:12.799Z,601.88
2019-03-26T09:35:13.836Z,686.25
2019-03-26T09:36:14.886Z,725.63
2019-03-26T09:37:14.723Z,703.13
2019-03-26T09:38:16.002Z,714.38
2019-03-26T09:39:15.977Z,742.5
2019-03-26T09:40:16.727Z,1980
2019-03-26T09:41:17.774Z,1035
2019-03-26T09:42:18.586Z,855
2019-03-26T09:43:19.348Z,1147.5
2019-03-26T09:44:20.389Z,832.5
2019-03-26T09:45:21.151Z,894.38
2019-03-26T09:46:22.465Z,691.88
2019-03-26T09:47:23.245Z,708.75
2019-03-26T09:48:23.725Z,770.63
2019-03-26T09:49:24.206Z,714.38
2019-03-26T09:50:25.015Z,765
2019-03-26T09:51:25.219Z,905.63
2019-03-26T09:52:25.706Z,815.63
2019-03-26T09:53:26.193Z,703.13
2019-03-26T09:54:26.675Z,697.5
2019-03-26T09:55:27.781Z,675
2019-03-26T09:56:34.366Z,669.38
2019-03-26T09:56:38.881Z,663.75
2019-03-26T09:57:40.317Z,607.5
2019-03-26T09:58:41.365Z,579.38
2019-03-26T09:59:41.679Z,540
2019-03-26T10:00:43.769Z,495
2019-03-26T10:01:43.682Z,511.88
2019-03-26T10:02:45.627Z,489.38
2019-03-26T10:03:46.380Z,478.13
2019-03-26T10:04:47.173Z,472.5
2019-03-26T10:05:47.655Z,500.63
2019-03-26T10:06:48.418Z,1046.25
2019-03-26T10:07:49.370Z,770.63
2019-03-26T10:08:55.228Z,652.5
2019-03-26T10:08:59.627Z,658.13
2019-03-26T10:10:01.069Z,708.75
2019-03-26T10:11:01.858Z,646.88
2019-03-26T10:12:02.623Z,675
2019-03-26T10:13:03.441Z,675
2019-03-26T10:14:04.222Z,703.13
2019-03-26T10:15:04.708Z,776.25
2019-03-26T10:16:04.911Z,1501.88
2019-03-26T10:17:06.228Z,1355.63
2019-03-26T10:18:06.822Z,1265.63
2019-03-26T10:19:07.588Z,2171.25
2019-03-26T10:20:08.828Z,1951.88
2019-03-26T10:21:09.611Z,1591.88
2019-03-26T10:22:10.655Z,2767.5
2019-03-26T10:23:11.698Z,2705.63
2019-03-26T10:24:12.466Z,2728.13
2019-03-26T10:25:13.960Z,2806.88
2019-03-26T10:26:14.171Z,2953.13
2019-03-26T10:27:14.662Z,2975.63
2019-03-26T10:28:15.485Z,1164.38
2019-03-26T10:29:38.209Z,939.38
2019-03-26T10:30:37.501Z,1012.5
2019-03-26T10:31:38.827Z,1963.13
2019-03-26T10:32:39.034Z,1586.25
2019-03-26T10:33:39.799Z,1991.25
2019-03-26T10:34:40.087Z,888.75
2019-03-26T10:35:40.852Z,888.75
2019-03-26T10:36:43.581Z,697.5
2019-03-26T10:37:44.079Z,556.88
2019-03-26T10:38:45.397Z,506.25
2019-03-26T10:39:46.160Z,483.75
2019-03-26T10:40:47.346Z,466.88
2019-03-26T10:41:47.135Z,455.63
2019-03-26T10:42:48.474Z,444.38
2019-03-26T10:43:48.960Z,427.5
2019-03-26T10:44:49.262Z,416.25
2019-03-26T10:45:50.301Z,416.25
2019-03-26T10:46:50.078Z,416.25
2019-03-26T10:47:50.842Z,416.25
2019-03-26T10:48:51.604Z,427.5
2019-03-26T10:49:52.364Z,438.75
2019-03-26T10:50:52.364Z,438.75
2019-03-26T10:51:52.845Z,438.75
2019-03-26T10:52:53.054Z,455.63
2019-03-26T10:53:54.168Z,483.75
2019-03-26T10:54:54.656Z,517.5
2019-03-26T10:55:55.140Z,562.5
2019-03-26T10:56:56.455Z,669.38
2019-03-26T10:57:56.941Z,731.25
2019-03-26T10:58:57.710Z,815.63
2019-03-26T10:59:58.482Z,1001.25
2019-03-26T11:00:59.186Z,1305
2019-03-26T11:02:02.709Z,1175.63
2019-03-26T11:03:04.702Z,1321.88
2019-03-26T11:04:03.820Z,1912.5
2019-03-26T11:05:05.050Z,2756.25
2019-03-26T11:06:05.900Z,3037.5
2019-03-26T11:07:07.263Z,3009.38
2019-03-26T11:08:07.745Z,3043.13
2019-03-26T11:09:30.067Z,3082.5
2019-03-26T11:10:29.227Z,3076.88
2019-03-26T11:11:29.836Z,2964.38
2019-03-26T11:12:30.799Z,2880
2019-03-26T11:13:32.054Z,2846.25
2019-03-26T11:14:35.468Z,2908.13
2019-03-26T11:15:34.804Z,2958.75
2019-03-26T11:16:36.109Z,2936.25
2019-03-26T11:17:38.292Z,2902.5
2019-03-26T11:18:38.306Z,2925
2019-03-26T11:19:39.646Z,2863.13
2019-03-26T11:20:39.713Z,2812.5
2019-03-26T11:21:40.206Z,2390.63
2019-03-26T11:22:41.263Z,2610
2019-03-26T11:23:41.755Z,2671.88
2019-03-26T11:24:42.597Z,1215
2019-03-26T11:25:42.885Z,849.38
2019-03-26T11:26:43.684Z,731.25
2019-03-26T11:27:44.202Z,714.38
2019-03-26T11:28:44.892Z,961.88
2019-03-26T11:29:46.519Z,2773.13
2019-03-26T11:30:46.247Z,787.5
2019-03-26T11:31:47.284Z,596.25
2019-03-26T11:32:47.495Z,562.5
2019-03-26T11:33:48.018Z,556.88
2019-03-26T11:34:48.804Z,551.25
2019-03-26T11:35:49.048Z,568.13
2019-03-26T11:36:50.098Z,641.25
2019-03-26T11:37:50.308Z,691.88
2019-03-26T11:38:51.648Z,686.25
2019-03-26T11:39:51.971Z,759.38
2019-03-26T11:40:52.227Z,832.5
2019-03-26T11:41:52.714Z,832.5
2019-03-26T11:42:53.804Z,911.25
2019-03-26T11:43:54.916Z,838.13
2019-03-26T11:44:55.417Z,2109.38
2019-03-26T11:45:55.944Z,691.88
2019-03-26T11:46:57.541Z,798.75
2019-03-26T11:47:57.925Z,680.63
2019-03-26T11:48:58.520Z,613.13
2019-03-26T11:49:58.726Z,652.5
2019-03-26T11:50:59.697Z,894.38
2019-03-26T11:52:01.037Z,1096.88
2019-03-26T11:53:01.370Z,815.63
2019-03-26T11:54:01.141Z,753.75
2019-03-26T11:55:01.802Z,691.88
2019-03-26T11:56:02.844Z,686.25
2019-03-26T11:57:03.501Z,675
2019-03-26T11:58:04.265Z,663.75
2019-03-26T11:59:04.754Z,838.13
2019-03-26T12:00:05.519Z,663.75
2019-03-26T12:01:06.986Z,545.63
2019-03-26T12:02:07.315Z,534.38
2019-03-26T12:03:08.806Z,534.38
2019-03-26T12:04:09.770Z,534.38
2019-03-26T12:05:10.537Z,590.63
2019-03-26T12:06:11.021Z,624.38
2019-03-26T12:07:12.060Z,601.88
2019-03-26T12:08:11.824Z,540
2019-03-26T12:09:12.950Z,551.25
2019-03-26T12:10:13.700Z,568.13
2019-03-26T12:11:14.622Z,590.63
2019-03-26T12:12:15.439Z,618.75
2019-03-26T12:13:15.724Z,652.5
2019-03-26T12:14:17.042Z,703.13
2019-03-26T12:15:17.909Z,838.13
2019-03-26T12:16:18.668Z,967.5
2019-03-26T12:17:18.882Z,1738.13
2019-03-26T12:18:19.372Z,2221.88
2019-03-26T12:19:20.110Z,2131.88
2019-03-26T12:20:21.255Z,855
2019-03-26T12:21:22.095Z,905.63
2019-03-26T12:22:22.866Z,2362.5
2019-03-26T12:23:23.158Z,691.88
2019-03-26T12:24:24.102Z,2064.38
2019-03-26T12:25:24.876Z,2368.13
2019-03-26T12:26:26.193Z,2362.5
2019-03-26T12:27:26.958Z,2351.25
2019-03-26T12:28:28.460Z,2317.5
2019-03-26T12:29:28.557Z,2328.75
2019-03-26T12:30:29.933Z,1670.63
2019-03-26T12:31:29.915Z,1096.88
2019-03-26T12:32:30.404Z,1985.63
2019-03-26T12:33:31.176Z,883.13
2019-03-26T12:34:38.105Z,2334.38
2019-03-26T12:34:41.553Z,2300.63
2019-03-26T12:35:42.059Z,1006.88
2019-03-26T12:36:43.102Z,776.25
2019-03-26T12:37:43.894Z,815.63
2019-03-26T12:38:44.802Z,1563.75
2019-03-26T12:40:07.990Z,2171.25
2019-03-26T12:41:06.718Z,2171.25
2019-03-26T12:42:07.705Z,2058.75
2019-03-26T12:43:09.486Z,888.75
2019-03-26T12:44:09.086Z,630
2019-03-26T12:45:09.741Z,585
2019-03-26T12:46:11.376Z,675
2019-03-26T12:47:11.694Z,770.63
2019-03-26T12:48:12.560Z,1102.5
2019-03-26T12:49:13.699Z,601.88
2019-03-26T12:50:14.466Z,551.25
2019-03-26T12:51:15.233Z,528.75
2019-03-26T12:52:17.485Z,517.5
2019-03-26T12:53:16.979Z,658.13
2019-03-26T12:54:17.466Z,922.5
2019-03-26T12:55:18.313Z,438.75
2019-03-26T12:56:19.824Z,399.38
2019-03-26T12:57:20.949Z,382.5
2019-03-26T12:58:38.290Z,371.25
2019-03-26T12:58:43.497Z,371.25
2019-03-26T12:59:42.729Z,371.25
2019-03-26T13:00:42.504Z,365.63
2019-03-26T13:01:44.380Z,365.63
2019-03-26T13:02:44.556Z,360
2019-03-26T13:03:45.480Z,365.63
2019-03-26T13:04:46.067Z,371.25
2019-03-26T13:05:47.202Z,388.13
2019-03-26T13:06:48.138Z,393.75
2019-03-26T13:07:48.736Z,416.25
2019-03-26T13:08:53.583Z,388.13
2019-03-26T13:09:56.060Z,393.75
2019-03-26T13:10:17.377Z,399.38
2019-03-26T13:10:25.260Z,405
2019-03-26T13:11:23.055Z,421.88
2019-03-26T13:12:24.386Z,466.88
2019-03-26T13:13:24.704Z,1445.63
2019-03-26T13:14:25.263Z,444.38
2019-03-26T13:15:25.747Z,421.88
2019-03-26T13:16:26.519Z,461.25
2019-03-26T13:17:27.393Z,658.13
2019-03-26T13:18:27.929Z,365.63
2019-03-26T13:19:28.689Z,343.13
2019-03-26T13:20:29.168Z,320.63
2019-03-26T13:21:32.822Z,303.75
2019-03-26T13:22:32.531Z,286.88
2019-03-26T13:23:34.968Z,281.25
2019-03-26T13:24:33.834Z,275.63
2019-03-26T13:25:34.144Z,270
2019-03-26T13:26:34.949Z,264.38
2019-03-26T13:27:36.067Z,258.75
2019-03-26T13:28:36.548Z,258.75
2019-03-26T13:29:36.749Z,253.13
2019-03-26T13:30:37.845Z,253.13
2019-03-26T13:31:41.206Z,247.5